sensor_id;sensor_type;location;lat;lon;timestamp;temperature;humidity
64882;HTU21D;51375;44.836;38.672;2024-02-21T00:01:04;5.28;69.22
64882;HTU21D;51375;44.836;38.672;2024-02-21T00:03:31;5.27;69.12
64882;HTU21D;51375;44.836;38.672;2024-02-21T00:05:57;5.26;69.14
64882;HTU21D;51375;44.836;38.672;2024-02-21T00:08:23;5.24;69.17
64882;HTU21D;51375;44.836;38.672;2024-02-21T00:10:48;5.20;69.33
64882;HTU21D;51375;44.836;38.672;2024-02-21T00:13:15;5.25;69.28
64882;HTU21D;51375;44.836;38.672;2024-02-21T00:15:41;5.28;69.03
64882;HTU21D;51375;44.836;38.672;2024-02-21T00:18:07;5.30;69.13
64882;HTU21D;51375;44.836;38.672;2024-02-21T00:20:32;5.38;68.92
64882;HTU21D;51375;44.836;38.672;2024-02-21T00:22:58;5.37;68.73
64882;HTU21D;51375;44.836;38.672;2024-02-21T00:25:24;5.35;68.91
64882;HTU21D;51375;44.836;38.672;2024-02-21T00:27:50;5.38;68.87
64882;HTU21D;51375;44.836;38.672;2024-02-21T00:30:16;5.42;68.87
64882;HTU21D;51375;44.836;38.672;2024-02-21T00:32:42;5.51;68.68
64882;HTU21D;51375;44.836;38.672;2024-02-21T00:35:08;5.52;68.55
64882;HTU21D;51375;44.836;38.672;2024-02-21T00:37:34;5.54;68.65
64882;HTU21D;51375;44.836;38.672;2024-02-21T00:40:00;5.62;68.42
64882;HTU21D;51375;44.836;38.672;2024-02-21T00:42:26;5.60;68.34
64882;HTU21D;51375;44.836;38.672;2024-02-21T00:44:52;5.57;68.36
64882;HTU21D;51375;44.836;38.672;2024-02-21T00:47:18;5.62;68.24
64882;HTU21D;51375;44.836;38.672;2024-02-21T00:49:44;5.62;68.22
64882;HTU21D;51375;44.836;38.672;2024-02-21T00:52:11;5.65;68.18
64882;HTU21D;51375;44.836;38.672;2024-02-21T00:54:36;5.72;68.07
64882;HTU21D;51375;44.836;38.672;2024-02-21T00:57:03;5.76;67.82
64882;HTU21D;51375;44.836;38.672;2024-02-21T00:59:28;5.76;67.68
64882;HTU21D;51375;44.836;38.672;2024-02-21T01:01:54;5.68;67.76
64882;HTU21D;51375;44.836;38.672;2024-02-21T01:04:20;5.65;67.88
64882;HTU21D;51375;44.836;38.672;2024-02-21T01:06:46;5.63;67.87
64882;HTU21D;51375;44.836;38.672;2024-02-21T01:09:12;5.64;67.92
64882;HTU21D;51375;44.836;38.672;2024-02-21T01:11:38;5.63;67.76
64882;HTU21D;51375;44.836;38.672;2024-02-21T01:14:04;5.57;67.84
64882;HTU21D;51375;44.836;38.672;2024-02-21T01:16:30;5.53;68.00
64882;HTU21D;51375;44.836;38.672;2024-02-21T01:18:57;5.53;67.97
64882;HTU21D;51375;44.836;38.672;2024-02-21T01:21:23;5.54;67.94
64882;HTU21D;51375;44.836;38.672;2024-02-21T01:23:49;5.54;67.86
64882;HTU21D;51375;44.836;38.672;2024-02-21T01:26:15;5.51;68.09
64882;HTU21D;51375;44.836;38.672;2024-02-21T01:28:41;5.62;68.02
64882;HTU21D;51375;44.836;38.672;2024-02-21T01:31:07;5.61;67.78
64882;HTU21D;51375;44.836;38.672;2024-02-21T01:33:33;5.56;67.88
64882;HTU21D;51375;44.836;38.672;2024-02-21T01:36:04;5.53;67.81
64882;HTU21D;51375;44.836;38.672;2024-02-21T01:38:33;5.40;67.97
64882;HTU21D;51375;44.836;38.672;2024-02-21T01:41:00;5.37;68.20
64882;HTU21D;51375;44.836;38.672;2024-02-21T01:43:26;5.34;68.23
64882;HTU21D;51375;44.836;38.672;2024-02-21T01:45:55;5.35;68.33
64882;HTU21D;51375;44.836;38.672;2024-02-21T01:48:22;5.45;68.17
64882;HTU21D;51375;44.836;38.672;2024-02-21T01:50:53;5.47;67.96
64882;HTU21D;51375;44.836;38.672;2024-02-21T01:53:31;5.42;68.10
64882;HTU21D;51375;44.836;38.672;2024-02-21T01:55:58;5.47;68.06
64882;HTU21D;51375;44.836;38.672;2024-02-21T01:58:25;5.47;67.98
64882;HTU21D;51375;44.836;38.672;2024-02-21T02:00:51;5.46;67.91
64882;HTU21D;51375;44.836;38.672;2024-02-21T02:03:17;5.40;68.04
64882;HTU21D;51375;44.836;38.672;2024-02-21T02:05:47;5.36;68.00
64882;HTU21D;51375;44.836;38.672;2024-02-21T02:08:15;5.27;68.07
64882;HTU21D;51375;44.836;38.672;2024-02-21T02:10:41;5.19;68.33
64882;HTU21D;51375;44.836;38.672;2024-02-21T02:13:08;5.20;68.44
64882;HTU21D;51375;44.836;38.672;2024-02-21T02:15:49;5.25;68.17
64882;HTU21D;51375;44.836;38.672;2024-02-21T02:18:16;5.25;68.13
64882;HTU21D;51375;44.836;38.672;2024-02-21T02:20:43;5.23;68.26
64882;HTU21D;51375;44.836;38.672;2024-02-21T02:25:45;5.22;68.23
64882;HTU21D;51375;44.836;38.672;2024-02-21T02:28:14;5.17;68.31
64882;HTU21D;51375;44.836;38.672;2024-02-21T02:30:41;5.15;68.48
64882;HTU21D;51375;44.836;38.672;2024-02-21T02:33:07;5.15;68.49
64882;HTU21D;51375;44.836;38.672;2024-02-21T02:35:33;5.19;68.30
64882;HTU21D;51375;44.836;38.672;2024-02-21T02:38:01;5.18;68.44
64882;HTU21D;51375;44.836;38.672;2024-02-21T02:40:26;5.19;68.43
64882;HTU21D;51375;44.836;38.672;2024-02-21T02:42:52;5.27;68.34
64882;HTU21D;51375;44.836;38.672;2024-02-21T02:45:21;5.36;68.17
64882;HTU21D;51375;44.836;38.672;2024-02-21T02:47:55;5.45;67.96
64882;HTU21D;51375;44.836;38.672;2024-02-21T02:50:26;5.46;67.85
64882;HTU21D;51375;44.836;38.672;2024-02-21T02:52:53;5.46;67.87
64882;HTU21D;51375;44.836;38.672;2024-02-21T02:55:19;5.48;67.91
64882;HTU21D;51375;44.836;38.672;2024-02-21T02:57:46;5.55;67.71
64882;HTU21D;51375;44.836;38.672;2024-02-21T03:00:12;5.53;67.60
64882;HTU21D;51375;44.836;38.672;2024-02-21T03:02:40;5.53;67.68
64882;HTU21D;51375;44.836;38.672;2024-02-21T03:07:40;5.62;67.38
64882;HTU21D;51375;44.836;38.672;2024-02-21T03:10:06;5.62;67.33
64882;HTU21D;51375;44.836;38.672;2024-02-21T03:12:32;5.63;67.18
64882;HTU21D;51375;44.836;38.672;2024-02-21T03:14:58;5.52;67.37
64882;HTU21D;51375;44.836;38.672;2024-02-21T03:17:25;5.43;67.48
64882;HTU21D;51375;44.836;38.672;2024-02-21T03:19:52;5.36;67.62
64882;HTU21D;51375;44.836;38.672;2024-02-21T03:22:20;5.36;67.72
64882;HTU21D;51375;44.836;38.672;2024-02-21T03:24:46;5.42;67.68
64882;HTU21D;51375;44.836;38.672;2024-02-21T03:27:12;5.55;67.46
64882;HTU21D;51375;44.836;38.672;2024-02-21T03:29:38;5.67;67.21
64882;HTU21D;51375;44.836;38.672;2024-02-21T03:32:04;5.75;67.00
64882;HTU21D;51375;44.836;38.672;2024-02-21T03:34:30;5.81;66.81
64882;HTU21D;51375;44.836;38.672;2024-02-21T03:36:56;5.85;66.75
64882;HTU21D;51375;44.836;38.672;2024-02-21T03:39:23;5.93;66.56
64882;HTU21D;51375;44.836;38.672;2024-02-21T03:41:49;6.04;66.36
64882;HTU21D;51375;44.836;38.672;2024-02-21T03:44:15;6.12;66.16
64882;HTU21D;51375;44.836;38.672;2024-02-21T03:46:41;6.16;65.98
64882;HTU21D;51375;44.836;38.672;2024-02-21T03:49:07;6.23;65.88
64882;HTU21D;51375;44.836;38.672;2024-02-21T03:51:33;6.25;65.69
64882;HTU21D;51375;44.836;38.672;2024-02-21T03:53:59;6.24;65.60
64882;HTU21D;51375;44.836;38.672;2024-02-21T03:56:25;6.25;65.51
64882;HTU21D;51375;44.836;38.672;2024-02-21T03:58:51;6.28;65.49
64882;HTU21D;51375;44.836;38.672;2024-02-21T04:01:17;6.30;65.37
64882;HTU21D;51375;44.836;38.672;2024-02-21T04:03:44;6.31;65.21
64882;HTU21D;51375;44.836;38.672;2024-02-21T04:06:10;6.35;65.14
64882;HTU21D;51375;44.836;38.672;2024-02-21T04:08:36;6.37;65.03
64882;HTU21D;51375;44.836;38.672;2024-02-21T04:11:02;6.39;65.04
64882;HTU21D;51375;44.836;38.672;2024-02-21T04:13:28;6.41;64.92
64882;HTU21D;51375;44.836;38.672;2024-02-21T04:15:54;6.37;64.90
64882;HTU21D;51375;44.836;38.672;2024-02-21T04:18:20;6.33;65.03
64882;HTU21D;51375;44.836;38.672;2024-02-21T04:20:47;6.27;64.98
64882;HTU21D;51375;44.836;38.672;2024-02-21T04:23:13;6.26;65.11
64882;HTU21D;51375;44.836;38.672;2024-02-21T04:25:39;6.28;65.12
64882;HTU21D;51375;44.836;38.672;2024-02-21T04:28:05;6.31;65.00
64882;HTU21D;51375;44.836;38.672;2024-02-21T04:30:31;6.35;64.85
64882;HTU21D;51375;44.836;38.672;2024-02-21T04:32:57;6.39;64.76
64882;HTU21D;51375;44.836;38.672;2024-02-21T04:35:23;6.40;64.69
64882;HTU21D;51375;44.836;38.672;2024-02-21T04:37:49;6.43;64.51
64882;HTU21D;51375;44.836;38.672;2024-02-21T04:40:15;6.46;64.41
64882;HTU21D;51375;44.836;38.672;2024-02-21T04:42:42;6.45;64.45
64882;HTU21D;51375;44.836;38.672;2024-02-21T04:45:09;6.46;64.39
64882;HTU21D;51375;44.836;38.672;2024-02-21T04:47:35;6.44;64.22
64882;HTU21D;51375;44.836;38.672;2024-02-21T04:50:01;6.42;64.26
64882;HTU21D;51375;44.836;38.672;2024-02-21T04:52:27;6.40;64.39
64882;HTU21D;51375;44.836;38.672;2024-02-21T04:54:53;6.41;64.44
64882;HTU21D;51375;44.836;38.672;2024-02-21T04:57:19;6.44;64.39
64882;HTU21D;51375;44.836;38.672;2024-02-21T04:59:45;6.45;64.37
64882;HTU21D;51375;44.836;38.672;2024-02-21T05:02:13;6.52;64.35
64882;HTU21D;51375;44.836;38.672;2024-02-21T05:04:39;6.55;64.24
64882;HTU21D;51375;44.836;38.672;2024-02-21T05:07:07;6.57;64.10
64882;HTU21D;51375;44.836;38.672;2024-02-21T05:09:33;6.55;64.09
64882;HTU21D;51375;44.836;38.672;2024-02-21T05:11:59;6.56;64.06
64882;HTU21D;51375;44.836;38.672;2024-02-21T05:14:26;6.58;64.03
64882;HTU21D;51375;44.836;38.672;2024-02-21T05:16:55;6.59;64.03
64882;HTU21D;51375;44.836;38.672;2024-02-21T05:19:20;6.60;63.88
64882;HTU21D;51375;44.836;38.672;2024-02-21T05:21:46;6.64;63.80
64882;HTU21D;51375;44.836;38.672;2024-02-21T05:24:13;6.67;63.73
64882;HTU21D;51375;44.836;38.672;2024-02-21T05:26:39;6.73;63.54
64882;HTU21D;51375;44.836;38.672;2024-02-21T05:29:05;6.73;63.43
64882;HTU21D;51375;44.836;38.672;2024-02-21T05:32:04;6.71;63.22
64882;HTU21D;51375;44.836;38.672;2024-02-21T05:34:29;6.70;63.40
64882;HTU21D;51375;44.836;38.672;2024-02-21T05:36:55;6.72;63.47
64882;HTU21D;51375;44.836;38.672;2024-02-21T05:39:21;6.73;63.50
64882;HTU21D;51375;44.836;38.672;2024-02-21T05:41:49;6.75;63.48
64882;HTU21D;51375;44.836;38.672;2024-02-21T05:44:15;6.79;63.53
64882;HTU21D;51375;44.836;38.672;2024-02-21T05:46:42;6.83;63.58
64882;HTU21D;51375;44.836;38.672;2024-02-21T05:49:08;6.86;63.52
64882;HTU21D;51375;44.836;38.672;2024-02-21T05:51:34;6.87;63.50
64882;HTU21D;51375;44.836;38.672;2024-02-21T05:54:01;6.69;63.36
64882;HTU21D;51375;44.836;38.672;2024-02-21T05:56:27;6.46;63.76
64882;HTU21D;51375;44.836;38.672;2024-02-21T05:58:54;6.24;64.20
64882;HTU21D;51375;44.836;38.672;2024-02-21T06:01:20;6.04;64.60
64882;HTU21D;51375;44.836;38.672;2024-02-21T06:03:48;5.97;64.94
64882;HTU21D;51375;44.836;38.672;2024-02-21T06:06:14;5.87;65.02
64882;HTU21D;51375;44.836;38.672;2024-02-21T06:08:40;5.81;64.98
64882;HTU21D;51375;44.836;38.672;2024-02-21T06:11:06;5.70;65.25
64882;HTU21D;51375;44.836;38.672;2024-02-21T06:13:32;5.66;65.34
64882;HTU21D;51375;44.836;38.672;2024-02-21T06:15:59;5.66;65.56
64882;HTU21D;51375;44.836;38.672;2024-02-21T06:18:25;5.78;65.62
64882;HTU21D;51375;44.836;38.672;2024-02-21T06:20:51;5.94;65.33
64882;HTU21D;51375;44.836;38.672;2024-02-21T06:23:17;6.00;64.95
64882;HTU21D;51375;44.836;38.672;2024-02-21T06:25:43;6.00;64.87
64882;HTU21D;51375;44.836;38.672;2024-02-21T06:28:10;6.05;64.91
64882;HTU21D;51375;44.836;38.672;2024-02-21T06:30:36;6.16;64.82
64882;HTU21D;51375;44.836;38.672;2024-02-21T06:33:02;6.31;64.58
64882;HTU21D;51375;44.836;38.672;2024-02-21T06:35:28;6.49;64.36
64882;HTU21D;51375;44.836;38.672;2024-02-21T06:37:54;6.56;64.15
64882;HTU21D;51375;44.836;38.672;2024-02-21T06:40:22;6.66;64.04
64882;HTU21D;51375;44.836;38.672;2024-02-21T06:42:49;6.72;63.70
64882;HTU21D;51375;44.836;38.672;2024-02-21T06:45:15;6.74;63.53
64882;HTU21D;51375;44.836;38.672;2024-02-21T06:47:42;6.78;63.43
64882;HTU21D;51375;44.836;38.672;2024-02-21T06:50:08;6.84;63.31
64882;HTU21D;51375;44.836;38.672;2024-02-21T06:52:38;6.89;63.15
64882;HTU21D;51375;44.836;38.672;2024-02-21T06:55:07;6.93;63.06
64882;HTU21D;51375;44.836;38.672;2024-02-21T06:57:33;6.97;62.95
64882;HTU21D;51375;44.836;38.672;2024-02-21T06:59:59;7.03;62.82
64882;HTU21D;51375;44.836;38.672;2024-02-21T07:02:25;7.08;62.71
64882;HTU21D;51375;44.836;38.672;2024-02-21T07:04:50;7.15;62.63
64882;HTU21D;51375;44.836;38.672;2024-02-21T07:07:16;7.25;62.50
64882;HTU21D;51375;44.836;38.672;2024-02-21T07:09:43;7.26;62.57
64882;HTU21D;51375;44.836;38.672;2024-02-21T07:12:10;7.19;63.00
64882;HTU21D;51375;44.836;38.672;2024-02-21T07:14:36;7.24;63.19
64882;HTU21D;51375;44.836;38.672;2024-02-21T07:17:02;7.26;62.95
64882;HTU21D;51375;44.836;38.672;2024-02-21T07:19:29;7.14;63.13
64882;HTU21D;51375;44.836;38.672;2024-02-21T07:21:55;6.99;63.51
64882;HTU21D;51375;44.836;38.672;2024-02-21T07:24:22;6.98;63.95
64882;HTU21D;51375;44.836;38.672;2024-02-21T07:26:48;7.07;63.77
64882;HTU21D;51375;44.836;38.672;2024-02-21T07:29:14;6.94;63.95
64882;HTU21D;51375;44.836;38.672;2024-02-21T07:31:43;6.86;64.47
64882;HTU21D;51375;44.836;38.672;2024-02-21T07:34:10;7.00;64.43
64882;HTU21D;51375;44.836;38.672;2024-02-21T07:36:36;7.04;64.59
64882;HTU21D;51375;44.836;38.672;2024-02-21T07:39:05;7.15;64.54
64882;HTU21D;51375;44.836;38.672;2024-02-21T07:41:31;7.28;64.85
64882;HTU21D;51375;44.836;38.672;2024-02-21T07:44:00;7.42;64.92
64882;HTU21D;51375;44.836;38.672;2024-02-21T07:46:26;7.61;64.67
64882;HTU21D;51375;44.836;38.672;2024-02-21T07:48:52;7.73;64.25
64882;HTU21D;51375;44.836;38.672;2024-02-21T07:51:17;7.72;64.02
64882;HTU21D;51375;44.836;38.672;2024-02-21T07:53:44;7.65;64.06
64882;HTU21D;51375;44.836;38.672;2024-02-21T07:56:14;7.55;63.81
64882;HTU21D;51375;44.836;38.672;2024-02-21T07:58:43;7.44;64.28
64882;HTU21D;51375;44.836;38.672;2024-02-21T08:01:10;7.41;64.43
64882;HTU21D;51375;44.836;38.672;2024-02-21T08:03:36;7.40;64.60
64882;HTU21D;51375;44.836;38.672;2024-02-21T08:06:03;7.34;64.59
64882;HTU21D;51375;44.836;38.672;2024-02-21T08:08:29;7.34;64.81
64882;HTU21D;51375;44.836;38.672;2024-02-21T08:10:55;7.46;64.57
64882;HTU21D;51375;44.836;38.672;2024-02-21T08:13:21;7.54;64.04
64882;HTU21D;51375;44.836;38.672;2024-02-21T08:15:47;7.56;64.18
64882;HTU21D;51375;44.836;38.672;2024-02-21T08:18:13;7.68;64.10
64882;HTU21D;51375;44.836;38.672;2024-02-21T08:20:39;7.84;63.82
64882;HTU21D;51375;44.836;38.672;2024-02-21T08:23:05;7.94;63.64
64882;HTU21D;51375;44.836;38.672;2024-02-21T08:25:31;8.05;63.55
64882;HTU21D;51375;44.836;38.672;2024-02-21T08:27:58;8.17;63.31
64882;HTU21D;51375;44.836;38.672;2024-02-21T08:30:25;8.19;63.15
64882;HTU21D;51375;44.836;38.672;2024-02-21T08:32:51;8.26;63.00
64882;HTU21D;51375;44.836;38.672;2024-02-21T08:35:17;8.37;63.08
64882;HTU21D;51375;44.836;38.672;2024-02-21T08:37:44;8.55;62.68
64882;HTU21D;51375;44.836;38.672;2024-02-21T08:40:14;8.68;62.32
64882;HTU21D;51375;44.836;38.672;2024-02-21T08:42:43;8.83;62.25
64882;HTU21D;51375;44.836;38.672;2024-02-21T08:45:10;9.00;61.84
64882;HTU21D;51375;44.836;38.672;2024-02-21T08:47:39;9.17;61.45
64882;HTU21D;51375;44.836;38.672;2024-02-21T08:50:05;9.31;61.07
64882;HTU21D;51375;44.836;38.672;2024-02-21T08:52:31;9.26;59.82
64882;HTU21D;51375;44.836;38.672;2024-02-21T08:54:58;9.19;60.64
64882;HTU21D;51375;44.836;38.672;2024-02-21T08:57:24;9.10;60.12
64882;HTU21D;51375;44.836;38.672;2024-02-21T08:59:50;9.01;59.67
64882;HTU21D;51375;44.836;38.672;2024-02-21T09:02:15;8.96;60.50
64882;HTU21D;51375;44.836;38.672;2024-02-21T09:04:42;9.07;60.83
64882;HTU21D;51375;44.836;38.672;2024-02-21T09:07:10;9.29;60.74
64882;HTU21D;51375;44.836;38.672;2024-02-21T09:09:36;9.35;58.96
64882;HTU21D;51375;44.836;38.672;2024-02-21T09:12:06;9.31;58.28
64882;HTU21D;51375;44.836;38.672;2024-02-21T09:14:33;9.26;58.79
64882;HTU21D;51375;44.836;38.672;2024-02-21T09:16:59;9.24;58.50
64882;HTU21D;51375;44.836;38.672;2024-02-21T09:19:25;9.24;58.23
64882;HTU21D;51375;44.836;38.672;2024-02-21T09:21:53;9.10;57.26
64882;HTU21D;51375;44.836;38.672;2024-02-21T09:24:19;9.05;57.60
64882;HTU21D;51375;44.836;38.672;2024-02-21T09:26:45;9.10;58.18
64882;HTU21D;51375;44.836;38.672;2024-02-21T09:29:11;9.19;57.80
64882;HTU21D;51375;44.836;38.672;2024-02-21T09:31:37;9.26;57.45
64882;HTU21D;51375;44.836;38.672;2024-02-21T09:34:04;9.26;57.17
64882;HTU21D;51375;44.836;38.672;2024-02-21T09:36:30;9.27;56.81
64882;HTU21D;51375;44.836;38.672;2024-02-21T09:38:56;9.20;56.82
64882;HTU21D;51375;44.836;38.672;2024-02-21T09:41:29;9.26;57.56
64882;HTU21D;51375;44.836;38.672;2024-02-21T09:43:55;9.30;57.16
64882;HTU21D;51375;44.836;38.672;2024-02-21T09:49:33;9.11;56.16
64882;HTU21D;51375;44.836;38.672;2024-02-21T09:52:01;9.15;56.90
64882;HTU21D;51375;44.836;38.672;2024-02-21T09:54:32;9.11;56.15
64882;HTU21D;51375;44.836;38.672;2024-02-21T09:57:02;9.06;56.31
64882;HTU21D;51375;44.836;38.672;2024-02-21T09:59:31;9.08;56.61
64882;HTU21D;51375;44.836;38.672;2024-02-21T10:01:57;9.06;56.58
64882;HTU21D;51375;44.836;38.672;2024-02-21T10:04:25;9.16;57.03
64882;HTU21D;51375;44.836;38.672;2024-02-21T10:06:51;9.25;56.33
64882;HTU21D;51375;44.836;38.672;2024-02-21T10:09:23;9.26;55.97
64882;HTU21D;51375;44.836;38.672;2024-02-21T10:11:50;9.18;54.99
64882;HTU21D;51375;44.836;38.672;2024-02-21T10:14:17;9.00;55.07
64882;HTU21D;51375;44.836;38.672;2024-02-21T10:16:46;9.01;55.93
64882;HTU21D;51375;44.836;38.672;2024-02-21T10:19:19;9.10;56.26
64882;HTU21D;51375;44.836;38.672;2024-02-21T10:22:02;9.15;54.18
64882;HTU21D;51375;44.836;38.672;2024-02-21T10:24:35;9.27;55.79
64882;HTU21D;51375;44.836;38.672;2024-02-21T10:27:07;9.33;54.94
64882;HTU21D;51375;44.836;38.672;2024-02-21T10:29:40;9.11;53.34
64882;HTU21D;51375;44.836;38.672;2024-02-21T10:32:12;9.18;54.89
64882;HTU21D;51375;44.836;38.672;2024-02-21T10:34:39;9.25;55.09
64882;HTU21D;51375;44.836;38.672;2024-02-21T10:37:07;9.32;54.32
64882;HTU21D;51375;44.836;38.672;2024-02-21T10:39:36;9.34;54.33
64882;HTU21D;51375;44.836;38.672;2024-02-21T10:42:03;9.36;53.93
64882;HTU21D;51375;44.836;38.672;2024-02-21T10:44:31;9.34;53.92
64882;HTU21D;51375;44.836;38.672;2024-02-21T10:46:57;9.27;53.97
64882;HTU21D;51375;44.836;38.672;2024-02-21T10:49:25;9.34;54.30
64882;HTU21D;51375;44.836;38.672;2024-02-21T10:51:55;9.42;54.54
64882;HTU21D;51375;44.836;38.672;2024-02-21T10:54:43;9.55;54.40
64882;HTU21D;51375;44.836;38.672;2024-02-21T10:57:12;9.70;54.63
64882;HTU21D;51375;44.836;38.672;2024-02-21T10:59:40;9.65;52.88
64882;HTU21D;51375;44.836;38.672;2024-02-21T11:02:06;9.59;53.53
64882;HTU21D;51375;44.836;38.672;2024-02-21T11:04:34;9.64;53.88
64882;HTU21D;51375;44.836;38.672;2024-02-21T11:07:05;9.74;53.95
64882;HTU21D;51375;44.836;38.672;2024-02-21T11:09:32;9.80;53.59
64882;HTU21D;51375;44.836;38.672;2024-02-21T11:12:03;9.84;53.63
64882;HTU21D;51375;44.836;38.672;2024-02-21T11:14:30;9.93;53.91
64882;HTU21D;51375;44.836;38.672;2024-02-21T11:17:03;9.98;53.45
64882;HTU21D;51375;44.836;38.672;2024-02-21T11:19:29;10.04;54.02
64882;HTU21D;51375;44.836;38.672;2024-02-21T11:21:57;10.11;53.52
64882;HTU21D;51375;44.836;38.672;2024-02-21T11:24:31;10.03;52.23
64882;HTU21D;51375;44.836;38.672;2024-02-21T11:27:14;9.91;52.65
64882;HTU21D;51375;44.836;38.672;2024-02-21T11:29:48;9.91;53.13
64882;HTU21D;51375;44.836;38.672;2024-02-21T11:32:18;9.99;53.58
64882;HTU21D;51375;44.836;38.672;2024-02-21T11:37:20;10.12;53.21
64882;HTU21D;51375;44.836;38.672;2024-02-21T11:39:46;10.11;52.85
64882;HTU21D;51375;44.836;38.672;2024-02-21T11:42:14;10.12;53.13
64882;HTU21D;51375;44.836;38.672;2024-02-21T11:44:40;10.12;52.40
64882;HTU21D;51375;44.836;38.672;2024-02-21T11:47:08;10.05;52.24
64882;HTU21D;51375;44.836;38.672;2024-02-21T11:49:42;9.98;52.32
64882;HTU21D;51375;44.836;38.672;2024-02-21T11:52:08;9.92;52.61
64882;HTU21D;51375;44.836;38.672;2024-02-21T11:54:34;9.98;52.99
64882;HTU21D;51375;44.836;38.672;2024-02-21T11:57:01;10.09;52.70
64882;HTU21D;51375;44.836;38.672;2024-02-21T11:59:30;9.98;51.96
64882;HTU21D;51375;44.836;38.672;2024-02-21T12:02:01;9.93;52.14
64882;HTU21D;51375;44.836;38.672;2024-02-21T12:04:29;9.92;52.94
64882;HTU21D;51375;44.836;38.672;2024-02-21T12:06:59;10.04;53.07
64882;HTU21D;51375;44.836;38.672;2024-02-21T12:09:26;10.16;53.29
64882;HTU21D;51375;44.836;38.672;2024-02-21T12:12:04;10.20;51.83
64882;HTU21D;51375;44.836;38.672;2024-02-21T12:14:32;10.15;52.52
64882;HTU21D;51375;44.836;38.672;2024-02-21T12:16:59;10.20;52.48
64882;HTU21D;51375;44.836;38.672;2024-02-21T12:19:28;10.14;52.18
64882;HTU21D;51375;44.836;38.672;2024-02-21T12:21:55;10.08;52.59
64882;HTU21D;51375;44.836;38.672;2024-02-21T12:24:24;10.09;52.71
64882;HTU21D;51375;44.836;38.672;2024-02-21T12:26:51;10.14;52.74
64882;HTU21D;51375;44.836;38.672;2024-02-21T12:29:21;10.14;52.37
64882;HTU21D;51375;44.836;38.672;2024-02-21T12:31:47;10.12;52.36
64882;HTU21D;51375;44.836;38.672;2024-02-21T12:34:15;10.07;52.56
64882;HTU21D;51375;44.836;38.672;2024-02-21T12:36:43;10.07;52.71
64882;HTU21D;51375;44.836;38.672;2024-02-21T12:39:10;10.05;52.62
64882;HTU21D;51375;44.836;38.672;2024-02-21T12:41:36;10.00;52.72
64882;HTU21D;51375;44.836;38.672;2024-02-21T12:44:12;9.92;52.38
64882;HTU21D;51375;44.836;38.672;2024-02-21T12:46:38;9.85;52.57
64882;HTU21D;51375;44.836;38.672;2024-02-21T12:49:05;9.85;52.92
64882;HTU21D;51375;44.836;38.672;2024-02-21T12:51:34;9.89;52.93
64882;HTU21D;51375;44.836;38.672;2024-02-21T12:54:00;9.97;52.97
64882;HTU21D;51375;44.836;38.672;2024-02-21T12:56:26;10.03;52.88
64882;HTU21D;51375;44.836;38.672;2024-02-21T12:58:53;10.08;52.98
64882;HTU21D;51375;44.836;38.672;2024-02-21T13:01:19;10.12;52.88
64882;HTU21D;51375;44.836;38.672;2024-02-21T13:03:46;10.18;52.80
64882;HTU21D;51375;44.836;38.672;2024-02-21T13:06:12;10.18;52.69
64882;HTU21D;51375;44.836;38.672;2024-02-21T13:08:39;10.10;52.65
64882;HTU21D;51375;44.836;38.672;2024-02-21T13:11:05;10.09;52.37
64882;HTU21D;51375;44.836;38.672;2024-02-21T13:13:31;9.91;52.65
64882;HTU21D;51375;44.836;38.672;2024-02-21T13:15:58;9.79;52.57
64882;HTU21D;51375;44.836;38.672;2024-02-21T13:18:24;9.72;52.90
64882;HTU21D;51375;44.836;38.672;2024-02-21T13:20:50;9.71;53.14
64882;HTU21D;51375;44.836;38.672;2024-02-21T13:23:16;9.76;52.98
64882;HTU21D;51375;44.836;38.672;2024-02-21T13:25:42;9.75;52.72
64882;HTU21D;51375;44.836;38.672;2024-02-21T13:28:10;9.68;52.85
64882;HTU21D;51375;44.836;38.672;2024-02-21T13:30:36;9.66;52.67
64882;HTU21D;51375;44.836;38.672;2024-02-21T13:33:02;9.57;52.56
64882;HTU21D;51375;44.836;38.672;2024-02-21T13:35:29;9.47;52.77
64882;HTU21D;51375;44.836;38.672;2024-02-21T13:37:54;9.42;52.85
64882;HTU21D;51375;44.836;38.672;2024-02-21T13:40:20;9.39;53.09
64882;HTU21D;51375;44.836;38.672;2024-02-21T13:42:46;9.39;53.21
64882;HTU21D;51375;44.836;38.672;2024-02-21T13:45:13;9.41;53.08
64882;HTU21D;51375;44.836;38.672;2024-02-21T13:47:40;9.30;52.77
64882;HTU21D;51375;44.836;38.672;2024-02-21T13:50:06;9.14;52.79
64882;HTU21D;51375;44.836;38.672;2024-02-21T13:52:39;8.93;52.97
64882;HTU21D;51375;44.836;38.672;2024-02-21T13:55:05;8.73;53.11
64882;HTU21D;51375;44.836;38.672;2024-02-21T13:57:35;8.70;53.62
64882;HTU21D;51375;44.836;38.672;2024-02-21T14:00:02;8.60;53.60
64882;HTU21D;51375;44.836;38.672;2024-02-21T14:02:37;8.52;53.75
64882;HTU21D;51375;44.836;38.672;2024-02-21T14:05:05;8.51;53.90
64882;HTU21D;51375;44.836;38.672;2024-02-21T14:07:32;8.47;53.94
64882;HTU21D;51375;44.836;38.672;2024-02-21T14:09:59;8.53;54.12
64882;HTU21D;51375;44.836;38.672;2024-02-21T14:12:25;8.67;53.90
64882;HTU21D;51375;44.836;38.672;2024-02-21T14:14:51;8.74;53.90
64882;HTU21D;51375;44.836;38.672;2024-02-21T14:17:18;8.79;53.81
64882;HTU21D;51375;44.836;38.672;2024-02-21T14:19:44;8.85;53.84
64882;HTU21D;51375;44.836;38.672;2024-02-21T14:22:10;8.89;53.88
64882;HTU21D;51375;44.836;38.672;2024-02-21T14:24:37;8.95;53.84
64882;HTU21D;51375;44.836;38.672;2024-02-21T14:27:03;9.02;53.77
64882;HTU21D;51375;44.836;38.672;2024-02-21T14:29:29;9.07;53.43
64882;HTU21D;51375;44.836;38.672;2024-02-21T14:31:55;8.94;53.44
64882;HTU21D;51375;44.836;38.672;2024-02-21T14:34:21;8.80;53.81
64882;HTU21D;51375;44.836;38.672;2024-02-21T14:36:47;8.74;53.97
64882;HTU21D;51375;44.836;38.672;2024-02-21T14:39:14;8.66;54.06
64882;HTU21D;51375;44.836;38.672;2024-02-21T14:41:40;8.62;54.20
64882;HTU21D;51375;44.836;38.672;2024-02-21T14:44:06;8.61;54.24
64882;HTU21D;51375;44.836;38.672;2024-02-21T14:46:36;8.59;54.23
64882;HTU21D;51375;44.836;38.672;2024-02-21T14:49:03;8.56;54.23
64882;HTU21D;51375;44.836;38.672;2024-02-21T14:51:29;8.56;54.20
64882;HTU21D;51375;44.836;38.672;2024-02-21T14:53:56;8.56;54.13
64882;HTU21D;51375;44.836;38.672;2024-02-21T14:56:22;8.58;54.01
64882;HTU21D;51375;44.836;38.672;2024-02-21T14:58:49;8.57;53.83
64882;HTU21D;51375;44.836;38.672;2024-02-21T15:01:15;8.51;54.01
64882;HTU21D;51375;44.836;38.672;2024-02-21T15:03:41;8.52;54.03
64882;HTU21D;51375;44.836;38.672;2024-02-21T15:06:08;8.53;54.04
64882;HTU21D;51375;44.836;38.672;2024-02-21T15:08:34;8.49;54.08
64882;HTU21D;51375;44.836;38.672;2024-02-21T15:11:02;8.42;54.15
64882;HTU21D;51375;44.836;38.672;2024-02-21T15:13:28;8.39;54.20
64882;HTU21D;51375;44.836;38.672;2024-02-21T15:15:56;8.39;54.14
64882;HTU21D;51375;44.836;38.672;2024-02-21T15:18:21;8.39;54.04
64882;HTU21D;51375;44.836;38.672;2024-02-21T15:20:47;8.30;54.00
64882;HTU21D;51375;44.836;38.672;2024-02-21T15:23:13;8.20;54.24
64882;HTU21D;51375;44.836;38.672;2024-02-21T15:25:39;8.16;54.33